Time;durP1;ratioP1;P1;durP2;ratioP2;P2;SDS_P1;SDS_P2;PMS_P1;PMS_P2;Temp;Humidity;BMP_temperature;BMP_pressure;BME280_temperature;BME280_humidity;BME280_pressure;Samples;Min_cycle;Max_cycle;Signal;HPM_P1;HPM_P2
2022/04/21 00:00:36;;;;;;;2.47;1.20;;;9.70;32.30;;;;;;2354931;54;21733;-85
2022/04/21 00:03:03;;;;;;;3.47;1.58;;;9.70;32.40;;;;;;2572150;52;21021;-83
2022/04/21 00:05:29;;;;;;;2.67;1.15;;;9.70;32.60;;;;;;2342749;53;20987;-84
2022/04/21 00:07:55;;;;;;;2.00;1.10;;;9.70;32.70;;;;;;2338618;53;20979;-84
2022/04/21 00:10:21;;;;;;;2.83;1.20;;;9.60;32.70;;;;;;2599329;53;21024;-83
2022/04/21 00:12:48;;;;;;;2.92;1.05;;;9.60;32.70;;;;;;2598977;53;20999;-85
2022/04/21 00:15:14;;;;;;;2.35;1.15;;;9.60;32.80;;;;;;2599027;53;20980;-84
2022/04/21 00:17:41;;;;;;;2.58;1.00;;;9.50;32.80;;;;;;2571907;52;20963;-84
2022/04/21 00:20:08;;;;;;;2.42;1.08;;;9.50;32.90;;;;;;2352558;54;20928;-84
2022/04/21 00:25:19;;;;;;;2.00;1.05;;;9.40;32.90;;;;;;2598297;52;20984;-83
2022/04/21 00:27:45;;;;;;;2.65;1.20;;;9.40;33.00;;;;;;2599416;53;20920;-84
2022/04/21 00:30:13;;;;;;;2.50;1.10;;;9.40;33.10;;;;;;2354010;54;20912;-85
2022/04/21 00:32:40;;;;;;;1.80;0.80;;;9.40;33.10;;;;;;2599602;53;20964;-85
2022/04/21 00:35:08;;;;;;;2.03;0.82;;;9.30;33.10;;;;;;2599745;53;20944;-84
2022/04/21 00:38:35;;;;;;;2.37;1.02;;;9.30;33.20;;;;;;2599745;53;20971;-84
2022/04/21 00:41:01;;;;;;;1.90;0.90;;;9.30;34.10;;;;;;2586889;52;21016;-84
2022/04/21 00:43:30;;;;;;;2.15;0.80;;;9.30;33.30;;;;;;2582437;52;21005;-85
2022/04/21 00:45:57;;;;;;;2.20;0.80;;;9.20;33.40;;;;;;2589031;52;20928;-84
2022/04/21 00:48:23;;;;;;;2.22;1.10;;;9.20;33.40;;;;;;2599777;53;21220;-84
2022/04/21 00:50:50;;;;;;;1.83;0.90;;;9.10;33.40;;;;;;2333727;55;20900;-84
2022/04/21 00:53:16;;;;;;;2.37;1.20;;;9.10;34.20;;;;;;2599313;53;20916;-84
2022/04/21 00:55:42;;;;;;;2.40;1.08;;;9.10;33.70;;;;;;2353732;54;22114;-84
2022/04/21 00:58:09;;;;;;;2.47;1.12;;;9.00;33.70;;;;;;2342814;53;20971;-85
2022/04/21 01:00:35;;;;;;;2.80;1.27;;;9.00;33.70;;;;;;2348387;53;20989;-84
2022/04/21 01:03:02;;;;;;;2.37;1.20;;;9.00;33.80;;;;;;2571031;52;20980;-84
2022/04/21 01:05:30;;;;;;;2.30;1.20;;;8.90;33.80;;;;;;2590826;52;21025;-84
2022/04/21 01:08:07;;;;;;;2.80;1.30;;;8.90;33.50;;;;;;2591882;52;21042;-85
2022/04/21 01:10:35;;;;;;;3.08;1.10;;;8.90;34.20;;;;;;2353236;53;21989;-85
2022/04/21 01:13:04;;;;;;;2.40;1.30;;;8.80;34.20;;;;;;2565453;52;22205;-83
2022/04/21 01:15:31;;;;;;;2.15;1.25;;;8.80;34.20;;;;;;2349383;53;21015;-84
2022/04/21 01:17:57;;;;;;;2.33;1.17;;;8.80;34.30;;;;;;2348678;53;21049;-85
2022/04/21 01:20:25;;;;;;;2.42;1.10;;;8.70;34.40;;;;;;2353553;53;20912;-85
2022/04/21 01:22:52;;;;;;;2.22;1.10;;;8.70;34.40;;;;;;2599350;53;20888;-84
2022/04/21 01:25:20;;;;;;;2.60;1.00;;;8.70;34.50;;;;;;2600132;53;21248;-84
2022/04/21 01:27:48;;;;;;;2.15;1.00;;;8.60;34.40;;;;;;2354199;54;21597;-85
2022/04/21 01:30:14;;;;;;;1.85;0.82;;;8.60;34.50;;;;;;2599946;53;20908;-85
2022/04/21 01:32:42;;;;;;;2.30;1.08;;;8.60;34.50;;;;;;2599670;53;21408;-84
2022/04/21 01:35:09;;;;;;;2.37;1.00;;;8.50;34.50;;;;;;2354073;54;20893;-84
2022/04/21 01:43:06;;;;;;;2.22;1.00;;;8.40;34.70;;;;;;2600167;53;20936;-83
2022/04/21 01:45:32;;;;;;;2.30;0.98;;;8.40;34.70;;;;;;2354039;54;21004;-84
2022/04/21 01:47:59;;;;;;;2.72;1.20;;;8.30;34.70;;;;;;2353958;54;20920;-85
2022/04/21 01:50:25;;;;;;;2.35;1.00;;;8.30;34.70;;;;;;2599237;53;20916;-83
2022/04/21 01:52:52;;;;;;;2.70;1.20;;;8.30;34.90;;;;;;2598381;53;21063;-84
2022/04/21 01:55:19;;;;;;;2.40;1.05;;;8.30;35.00;;;;;;2354121;54;20916;-84
2022/04/21 01:57:45;;;;;;;2.72;1.10;;;8.20;35.00;;;;;;2599581;53;21321;-84
2022/04/21 02:00:12;;;;;;;3.00;1.30;;;8.20;35.10;;;;;;2353734;54;21480;-84
2022/04/21 02:02:39;;;;;;;2.20;1.20;;;8.10;35.20;;;;;;2598986;53;20998;-83
2022/04/21 02:05:05;;;;;;;3.78;1.40;;;8.10;35.40;;;;;;2598670;53;20992;-83
2022/04/21 02:07:32;;;;;;;2.53;1.17;;;8.10;35.50;;;;;;2353170;54;21782;-84
2022/04/21 02:09:58;;;;;;;2.15;1.15;;;8.10;35.50;;;;;;2352013;54;20979;-84
2022/04/21 02:12:28;;;;;;;5.93;1.30;;;8.10;35.60;;;;;;2351506;54;20955;-83
2022/04/21 02:14:54;;;;;;;3.50;1.25;;;8.00;35.70;;;;;;2352935;54;20968;-84
2022/04/21 02:17:20;;;;;;;2.45;1.25;;;8.00;35.70;;;;;;2599012;53;20943;-83
2022/04/21 02:19:46;;;;;;;2.42;1.17;;;8.00;35.60;;;;;;2352751;54;20990;-84
2022/04/21 02:22:13;;;;;;;2.15;1.00;;;8.00;35.70;;;;;;2598528;53;20951;-83
2022/04/21 02:24:39;;;;;;;2.87;1.17;;;8.00;35.70;;;;;;2598820;53;20932;-84
2022/04/21 02:27:06;;;;;;;2.45;1.25;;;7.90;35.80;;;;;;2353414;54;20912;-84
2022/04/21 02:29:32;;;;;;;3.28;1.58;;;7.90;35.90;;;;;;2598405;53;20924;-83
2022/04/21 02:32:01;;;;;;;2.75;1.42;;;7.90;36.00;;;;;;2591751;53;21501;-84
2022/04/21 02:34:29;;;;;;;3.03;1.55;;;7.90;36.10;;;;;;2333673;53;20923;-84
2022/04/21 02:36:55;;;;;;;3.12;1.40;;;7.90;36.10;;;;;;2353093;54;21781;-84
2022/04/21 02:39:22;;;;;;;2.58;1.30;;;7.80;36.10;;;;;;2573818;53;20925;-83
2022/04/21 02:41:48;;;;;;;2.83;1.40;;;7.80;36.20;;;;;;2350669;53;21419;-83
2022/04/21 02:44:17;;;;;;;3.67;1.45;;;7.80;36.10;;;;;;2353577;54;20935;-83
2022/04/21 02:46:44;;;;;;;2.45;1.00;;;7.80;36.20;;;;;;2598984;53;20968;-84
2022/04/21 02:49:10;;;;;;;3.67;1.40;;;7.70;36.20;;;;;;2599019;53;21789;-83
2022/04/21 02:51:36;;;;;;;2.80;1.40;;;7.70;36.20;;;;;;2353054;54;20897;-83
2022/04/21 02:59:32;;;;;;;3.35;1.40;;;7.60;36.40;;;;;;2334758;53;20924;-84
2022/04/21 03:01:58;;;;;;;4.30;1.48;;;7.60;36.40;;;;;;2600119;53;21043;-85
2022/04/21 03:04:25;;;;;;;2.90;1.20;;;7.60;36.50;;;;;;2348523;53;20967;-85
2022/04/21 03:06:51;;;;;;;2.37;1.35;;;7.50;36.40;;;;;;2339650;53;20965;-84
2022/04/21 03:09:17;;;;;;;3.45;1.60;;;7.50;36.50;;;;;;2600597;53;20920;-84
2022/04/21 03:11:44;;;;;;;2.87;1.35;;;7.50;36.50;;;;;;2600166;53;20956;-84
2022/04/21 03:14:10;;;;;;;3.72;1.52;;;7.50;36.60;;;;;;2579221;52;20923;-85
2022/04/21 03:16:36;;;;;;;3.65;1.40;;;7.50;36.60;;;;;;2349105;53;20888;-84
2022/04/21 03:19:03;;;;;;;2.83;1.35;;;7.40;36.70;;;;;;2598021;53;20967;-83
2022/04/21 03:24:19;;;;;;;3.20;1.60;;;7.30;36.70;;;;;;2599564;53;20904;-83
2022/04/21 03:27:02;;;;;;;2.83;1.48;;;7.30;36.80;;;;;;2599846;53;20949;-83
2022/04/21 03:29:29;;;;;;;3.00;1.37;;;7.30;37.40;;;;;;2589676;52;20979;-84
2022/04/21 03:31:56;;;;;;;3.83;1.33;;;7.30;36.90;;;;;;2339500;53;20984;-85
2022/04/21 03:34:22;;;;;;;3.03;1.50;;;7.20;36.90;;;;;;2353895;54;20968;-83
2022/04/21 03:36:49;;;;;;;2.87;1.45;;;7.20;37.00;;;;;;2598974;53;21001;-84
2022/04/21 03:39:16;;;;;;;2.80;1.55;;;7.20;37.10;;;;;;2599452;53;21208;-86
2022/04/21 03:41:42;;;;;;;2.90;1.60;;;7.10;37.10;;;;;;2353860;54;20911;-84
2022/04/21 03:44:09;;;;;;;3.90;1.65;;;7.10;37.20;;;;;;2571104;53;20943;-84
2022/04/21 03:46:36;;;;;;;3.03;1.50;;;7.10;37.30;;;;;;2573227;52;20911;-84
2022/04/21 03:49:02;;;;;;;2.85;1.27;;;7.10;37.40;;;;;;2340669;53;21912;-85
2022/04/21 03:51:28;;;;;;;3.05;1.52;;;7.00;37.40;;;;;;2345856;53;20999;-84
2022/04/21 03:53:54;;;;;;;4.03;1.70;;;7.00;37.40;;;;;;2353208;54;20920;-85
2022/04/21 03:56:21;;;;;;;3.70;1.77;;;7.00;37.50;;;;;;2353386;54;20995;-84
2022/04/21 03:58:50;;;;;;;3.42;1.70;;;7.00;37.50;;;;;;2599515;53;20924;-84
2022/04/21 04:01:17;;;;;;;3.50;1.70;;;7.00;37.60;;;;;;2599814;53;20987;-84
2022/04/21 04:03:44;;;;;;;3.03;1.60;;;6.90;37.50;;;;;;2599678;53;20913;-85
2022/04/21 04:12:09;;;;;;;3.20;1.55;;;6.90;37.80;;;;;;2598598;53;21752;-83
2022/04/21 04:14:35;;;;;;;3.05;1.45;;;6.80;37.30;;;;;;2599459;53;21534;-85
2022/04/21 04:17:01;;;;;;;3.33;1.67;;;6.80;37.50;;;;;;2353258;54;20982;-85
2022/04/21 04:19:27;;;;;;;5.00;1.67;;;6.80;37.70;;;;;;2591491;53;20990;-83
2022/04/21 04:21:54;;;;;;;3.95;1.80;;;6.70;37.70;;;;;;2580416;52;20949;-85
2022/04/21 04:24:20;;;;;;;4.15;1.70;;;6.70;37.80;;;;;;2579239;52;21023;-84
2022/04/21 04:26:48;;;;;;;2.85;1.40;;;6.70;37.90;;;;;;2593236;53;21000;-84
2022/04/21 04:29:22;;;;;;;3.12;1.48;;;6.60;37.80;;;;;;2571203;52;20937;-83
2022/04/21 04:31:50;;;;;;;4.15;1.80;;;6.60;37.90;;;;;;2333708;54;20888;-85
2022/04/21 04:34:16;;;;;;;3.83;1.60;;;6.60;38.00;;;;;;2353258;54;20872;-82
2022/04/21 04:36:43;;;;;;;2.60;1.40;;;6.60;38.10;;;;;;2336237;53;21019;-85
2022/04/21 04:39:11;;;;;;;3.53;1.75;;;6.60;38.10;;;;;;2351692;53;20932;-84
2022/04/21 04:44:22;;;;;;;2.80;1.40;;;6.50;38.10;;;;;;2353202;53;20939;-84
2022/04/21 04:46:48;;;;;;;3.72;1.85;;;6.50;38.20;;;;;;2353852;54;20976;-85
2022/04/21 04:49:15;;;;;;;3.72;1.87;;;6.50;38.20;;;;;;2354305;54;20990;-85
2022/04/21 04:51:42;;;;;;;5.18;2.22;;;6.40;38.30;;;;;;2354532;54;20933;-86
2022/04/21 04:54:09;;;;;;;4.45;2.12;;;6.40;38.50;;;;;;2354325;54;21762;-84
2022/04/21 04:56:36;;;;;;;3.45;1.83;;;6.40;39.00;;;;;;2601347;53;20996;-84
2022/04/21 04:59:02;;;;;;;4.35;1.80;;;6.40;38.70;;;;;;2354943;54;20928;-85
2022/04/21 05:01:39;;;;;;;4.53;2.25;;;6.40;38.80;;;;;;2354833;54;20996;-84
2022/04/21 05:04:10;;;;;;;4.30;2.20;;;6.40;39.00;;;;;;2586364;52;20963;-85
2022/04/21 05:06:51;;;;;;;3.17;1.50;;;6.40;39.00;;;;;;2589354;52;21355;-84
2022/04/21 05:09:18;;;;;;;4.00;1.92;;;6.40;39.10;;;;;;2567653;52;21275;-84
2022/04/21 05:11:52;;;;;;;3.20;1.80;;;6.40;39.00;;;;;;2600429;53;21015;-84
2022/04/21 05:14:19;;;;;;;3.67;2.03;;;6.40;39.10;;;;;;2601482;53;20944;-85
2022/04/21 05:16:46;;;;;;;3.10;1.65;;;6.50;39.30;;;;;;2600960;53;20940;-85
2022/04/21 05:19:14;;;;;;;3.37;1.90;;;6.50;39.40;;;;;;2354818;54;21007;-84
2022/04/21 05:21:41;;;;;;;3.10;1.55;;;6.50;39.50;;;;;;2355739;54;21004;-83
2022/04/21 05:24:08;;;;;;;3.90;1.90;;;6.50;39.50;;;;;;2600812;53;20967;-85
2022/04/21 05:26:36;;;;;;;4.62;2.17;;;6.50;39.60;;;;;;2599974;53;21247;-84
2022/04/21 05:30:55;;;;;;;3.85;2.03;;;6.60;39.80;;;;;;2600736;53;20956;-85
2022/04/21 05:33:26;;;;;;;3.85;1.80;;;6.60;39.90;;;;;;2599162;53;20940;-85
2022/04/21 05:35:53;;;;;;;4.97;1.92;;;6.70;39.80;;;;;;2600892;53;21051;-84
2022/04/21 05:38:21;;;;;;;3.37;1.70;;;6.70;39.80;;;;;;2354606;54;20932;-84
2022/04/21 05:40:48;;;;;;;4.07;1.92;;;6.70;39.90;;;;;;2354004;54;20904;-85
2022/04/21 05:43:17;;;;;;;3.10;1.60;;;6.70;39.90;;;;;;2355030;54;20920;-85
2022/04/21 05:45:48;;;;;;;2.87;1.48;;;6.70;40.10;;;;;;2354667;54;20967;-85
2022/04/21 05:48:17;;;;;;;3.35;1.70;;;6.80;40.20;;;;;;2600104;53;21841;-85
2022/04/21 05:50:45;;;;;;;4.15;2.05;;;6.90;40.20;;;;;;2599529;53;20983;-85
2022/04/21 05:53:21;;;;;;;4.47;2.22;;;6.90;40.30;;;;;;2353144;54;20955;-85
2022/04/21 05:55:49;;;;;;;3.70;2.10;;;7.00;40.50;;;;;;2599192;53;21090;-85
2022/04/21 05:58:15;;;;;;;4.22;2.30;;;7.00;40.40;;;;;;2352834;54;20927;-85
2022/04/21 06:00:41;;;;;;;6.37;2.75;;;7.10;40.60;;;;;;2353027;54;20932;-85
2022/04/21 06:03:08;;;;;;;4.55;2.75;;;7.10;40.60;;;;;;2598827;53;20972;-85
2022/04/21 06:05:34;;;;;;;4.95;2.85;;;7.20;40.70;;;;;;2599212;53;21004;-84
2022/04/21 06:08:01;;;;;;;4.68;2.62;;;7.30;40.70;;;;;;2600054;53;20995;-84
2022/04/21 06:10:27;;;;;;;4.25;2.40;;;7.40;40.80;;;;;;2335628;53;21855;-85
2022/04/21 06:12:54;;;;;;;4.22;1.85;;;7.50;40.90;;;;;;2338459;53;21285;-85
2022/04/21 06:15:20;;;;;;;3.60;2.05;;;7.60;41.10;;;;;;2595175;52;21007;-85
2022/04/21 06:17:47;;;;;;;3.97;2.25;;;7.70;41.80;;;;;;2601080;53;20944;-86
2022/04/21 06:20:14;;;;;;;3.87;1.90;;;7.70;41.10;;;;;;2346710;53;20947;-86
2022/04/21 06:22:40;;;;;;;4.37;2.08;;;7.80;41.20;;;;;;2586675;52;21060;-86
2022/04/21 06:25:07;;;;;;;3.62;1.77;;;7.90;41.20;;;;;;2601101;53;20912;-85
2022/04/21 06:27:34;;;;;;;7.43;2.58;;;8.00;41.30;;;;;;2600971;53;20940;-85
2022/04/21 06:30:00;;;;;;;4.87;1.70;;;8.10;41.30;;;;;;2342791;53;20931;-85
2022/04/21 06:32:27;;;;;;;3.58;1.98;;;8.20;41.30;;;;;;2591004;52;20992;-86
2022/04/21 06:34:56;;;;;;;3.65;1.98;;;8.30;41.30;;;;;;2600573;53;21514;-85
2022/04/21 06:37:23;;;;;;;4.07;1.90;;;8.50;41.50;;;;;;2600793;53;20929;-85
2022/04/21 06:39:52;;;;;;;4.68;2.05;;;8.60;41.50;;;;;;2600653;53;20955;-85
2022/04/21 06:42:19;;;;;;;3.67;1.87;;;8.70;41.60;;;;;;2354584;54;21000;-85
2022/04/21 06:50:14;;;;;;;4.78;2.17;;;9.00;41.50;;;;;;2600712;53;20869;-85
2022/04/21 06:52:41;;;;;;;4.40;2.22;;;9.20;41.80;;;;;;2599699;53;20913;-86
2022/04/21 06:55:08;;;;;;;4.87;1.95;;;9.40;42.50;;;;;;2589129;52;20950;-86
2022/04/21 06:57:34;;;;;;;3.12;2.03;;;9.70;43.40;;;;;;2597745;52;20956;-85
2022/04/21 07:00:02;;;;;;;3.83;2.10;;;10.10;43.20;;;;;;2354399;54;21931;-87
2022/04/21 07:02:31;;;;;;;4.53;2.50;;;10.60;44.20;;;;;;2354374;54;22022;-86
2022/04/21 07:05:06;;;;;;;3.72;2.12;;;11.20;44.80;;;;;;2353716;54;20991;-86
2022/04/21 07:07:33;;;;;;;4.65;2.58;;;11.80;45.20;;;;;;2600270;53;20960;-85
2022/04/21 07:10:02;;;;;;;5.85;2.40;;;12.40;45.20;;;;;;2337993;53;21054;-86
2022/04/21 07:12:32;;;;;;;5.53;2.10;;;13.00;45.30;;;;;;2595614;52;20951;-85
2022/04/21 07:15:06;;;;;;;4.68;2.30;;;13.70;45.10;;;;;;2599343;53;20912;-85
2022/04/21 07:17:33;;;;;;;4.20;2.37;;;14.30;44.60;;;;;;2599768;53;20923;-85
2022/04/21 07:20:00;;;;;;;3.85;1.90;;;14.90;44.40;;;;;;2354023;54;20987;-86
2022/04/21 07:22:26;;;;;;;5.43;2.03;;;15.40;43.90;;;;;;2598689;53;20979;-85
2022/04/21 07:24:53;;;;;;;3.78;1.98;;;16.00;43.50;;;;;;2353063;54;20935;-85
2022/04/21 07:27:19;;;;;;;4.62;2.20;;;16.50;43.20;;;;;;2353462;54;20923;-85
2022/04/21 07:29:46;;;;;;;3.28;1.73;;;16.90;42.80;;;;;;2350758;53;22439;-86
2022/04/21 07:32:13;;;;;;;3.62;2.05;;;17.40;42.20;;;;;;2574173;52;21011;-85
2022/04/21 07:34:39;;;;;;;4.05;1.90;;;17.80;41.40;;;;;;2596062;53;21028;-85
2022/04/21 07:37:09;;;;;;;3.00;1.70;;;18.10;41.20;;;;;;2351350;54;21435;-85
2022/04/21 07:39:37;;;;;;;3.28;1.62;;;18.50;40.90;;;;;;2330780;53;20958;-85
2022/04/21 07:42:05;;;;;;;3.10;1.90;;;18.80;40.30;;;;;;2595970;53;20972;-87
2022/04/21 07:44:35;;;;;;;3.50;1.87;;;19.00;39.70;;;;;;2595267;53;20963;-89
2022/04/21 07:47:02;;;;;;;5.30;2.03;;;19.20;39.00;;;;;;2581124;52;20935;-86
2022/04/21 07:49:47;;;;;;;3.35;1.80;;;19.30;38.20;;;;;;2583767;52;21553;-88
2022/04/21 07:53:14;;;;;;;3.15;1.73;;;19.20;37.30;;;;;;2598827;53;20991;-87
2022/04/21 07:55:50;;;;;;;4.22;1.92;;;19.10;36.60;;;;;;2596566;53;21043;-88
2022/04/21 07:58:16;;;;;;;4.60;1.95;;;19.00;36.00;;;;;;2596677;53;20912;-86
2022/04/21 08:00:44;;;;;;;4.40;2.03;;;18.90;36.00;;;;;;2350712;54;20956;-85
2022/04/21 08:03:11;;;;;;;4.43;2.55;;;18.70;35.60;;;;;;2341303;53;20982;-86
2022/04/21 08:05:38;;;;;;;3.83;2.33;;;18.50;35.20;;;;;;2585278;52;20979;-84
2022/04/21 08:08:04;;;;;;;9.38;2.70;;;18.40;35.80;;;;;;2575622;52;20921;-85
2022/04/21 08:10:31;;;;;;;5.05;2.75;;;18.20;35.20;;;;;;2343621;53;21550;-85
2022/04/21 08:12:59;;;;;;;7.05;2.80;;;18.10;35.40;;;;;;2597145;53;20931;-85
2022/04/21 08:15:32;;;;;;;4.43;2.90;;;18.00;35.70;;;;;;2353255;54;21000;-85
2022/04/21 08:17:59;;;;;;;4.80;2.95;;;18.10;36.10;;;;;;2598608;53;20924;-85
2022/04/21 08:20:28;;;;;;;5.93;2.80;;;18.20;36.50;;;;;;2353098;54;20884;-85
2022/04/21 08:22:54;;;;;;;4.75;2.97;;;18.30;36.70;;;;;;2352726;54;21282;-85
2022/04/21 08:32:33;;;;;;;6.25;3.20;;;18.60;36.70;;;;;;2347107;54;20956;-86
2022/04/21 08:35:01;;;;;;;5.07;2.83;;;18.80;36.50;;;;;;2596381;53;20967;-84
2022/04/21 08:37:30;;;;;;;4.87;2.70;;;19.00;36.30;;;;;;2597204;53;21740;-85
2022/04/21 08:39:56;;;;;;;7.43;3.33;;;19.10;36.30;;;;;;2351258;54;20967;-85
2022/04/21 08:42:23;;;;;;;3.90;2.70;;;19.20;36.20;;;;;;2596837;53;20967;-85
2022/04/21 08:44:50;;;;;;;4.00;2.72;;;19.30;36.00;;;;;;2351639;54;21019;-85
2022/04/21 08:47:18;;;;;;;4.87;2.90;;;19.30;35.70;;;;;;2597901;53;20959;-86
2022/04/21 08:49:49;;;;;;;5.10;2.70;;;19.40;35.50;;;;;;2351167;54;21030;-86
2022/04/21 08:52:16;;;;;;;5.12;3.10;;;19.40;35.00;;;;;;2597500;53;20912;-85
2022/04/21 08:54:42;;;;;;;5.80;2.60;;;19.30;34.70;;;;;;2596641;53;20976;-86
2022/04/21 08:57:10;;;;;;;4.43;2.70;;;19.30;34.60;;;;;;2595930;53;20939;-85
2022/04/21 08:59:36;;;;;;;5.00;2.85;;;19.20;34.80;;;;;;2352117;54;21050;-87
2022/04/21 09:02:02;;;;;;;4.72;2.95;;;19.30;35.10;;;;;;2598759;53;20936;-87
2022/04/21 09:04:30;;;;;;;6.25;3.20;;;19.30;35.40;;;;;;2597816;53;20987;-87
2022/04/21 09:07:14;;;;;;;6.22;3.10;;;19.40;36.20;;;;;;2596638;53;20983;-87
2022/04/21 09:09:53;;;;;;;4.45;2.90;;;19.60;35.30;;;;;;2592157;53;21051;-85
2022/04/21 09:12:20;;;;;;;5.18;2.58;;;19.70;35.20;;;;;;2593801;53;20960;-85
2022/04/21 09:14:47;;;;;;;5.25;3.30;;;19.70;35.50;;;;;;2568860;52;20932;-88
2022/04/21 09:17:15;;;;;;;5.40;3.17;;;19.90;35.50;;;;;;2595935;53;21071;-87
2022/04/21 09:19:55;;;;;;;5.62;3.62;;;20.00;35.70;;;;;;2352747;54;20947;-88
2022/04/21 09:22:21;;;;;;;5.03;3.37;;;20.10;35.10;;;;;;2597466;53;20900;-86
2022/04/21 09:24:48;;;;;;;4.60;3.35;;;20.10;34.80;;;;;;2352263;54;20932;-86
2022/04/21 09:27:15;;;;;;;5.65;3.65;;;20.20;34.60;;;;;;2598541;53;21344;-87
2022/04/21 09:29:41;;;;;;;5.10;3.00;;;20.20;34.50;;;;;;2597293;53;21953;-88
2022/04/21 09:32:08;;;;;;;4.72;3.20;;;20.20;34.30;;;;;;2598438;53;20901;-86
2022/04/21 09:34:37;;;;;;;5.65;2.95;;;20.20;34.10;;;;;;2352671;54;20888;-86
2022/04/21 09:37:08;;;;;;;5.30;2.78;;;20.20;34.20;;;;;;2597494;53;20936;-86
2022/04/21 09:39:45;;;;;;;5.40;2.60;;;20.20;34.40;;;;;;2356126;54;21051;-88
2022/04/21 09:42:11;;;;;;;4.40;2.87;;;20.10;34.50;;;;;;2597963;53;20948;-86
2022/04/21 09:47:28;;;;;;;5.95;3.37;;;20.20;34.60;;;;;;2597747;53;20936;-86
2022/04/21 09:49:57;;;;;;;5.65;3.10;;;20.30;34.30;;;;;;2351518;54;20989;-88
2022/04/21 09:52:27;;;;;;;5.15;2.97;;;20.30;34.30;;;;;;2570450;52;20939;-85
2022/04/21 09:54:55;;;;;;;5.68;3.65;;;20.40;34.50;;;;;;2352370;54;21892;-87
2022/04/21 09:57:31;;;;;;;5.57;3.37;;;20.50;34.60;;;;;;2597414;53;20968;-84
2022/04/21 09:59:58;;;;;;;5.80;3.15;;;20.60;34.30;;;;;;2597990;53;20967;-86
2022/04/21 10:02:26;;;;;;;6.30;2.95;;;20.70;34.20;;;;;;2596485;53;20948;-86
2022/04/21 10:04:52;;;;;;;6.05;3.42;;;20.80;34.10;;;;;;2342403;53;20955;-86
2022/04/21 10:07:19;;;;;;;4.72;3.20;;;20.90;34.20;;;;;;2582887;52;20968;-87
2022/04/21 10:09:46;;;;;;;5.47;3.37;;;20.90;33.90;;;;;;2595718;53;21695;-85
2022/04/21 10:12:12;;;;;;;5.18;3.17;;;21.00;33.70;;;;;;2596222;53;20928;-85
2022/04/21 10:14:39;;;;;;;4.25;2.85;;;21.00;33.70;;;;;;2584539;52;21050;-86
2022/04/21 10:17:09;;;;;;;6.20;3.50;;;21.10;33.70;;;;;;2580396;52;20956;-86
2022/04/21 10:19:35;;;;;;;4.55;2.80;;;21.20;33.50;;;;;;2349850;53;20963;-85
2022/04/21 10:22:04;;;;;;;5.00;3.30;;;21.20;33.50;;;;;;2596773;53;20968;-85
2022/04/21 10:24:34;;;;;;;5.30;3.62;;;21.30;33.40;;;;;;2350586;54;20964;-85
2022/04/21 10:27:01;;;;;;;6.22;3.15;;;21.40;33.20;;;;;;2595807;53;20940;-85
2022/04/21 10:29:27;;;;;;;5.28;3.47;;;21.40;33.10;;;;;;2596052;53;20936;-86
2022/04/21 10:32:01;;;;;;;5.35;3.03;;;21.50;33.20;;;;;;2596802;53;21489;-84
2022/04/21 10:34:40;;;;;;;6.12;3.60;;;21.50;32.90;;;;;;2597834;53;20976;-86
2022/04/21 10:37:20;;;;;;;5.22;3.58;;;21.60;32.90;;;;;;2594500;53;20896;-86
2022/04/21 10:40:14;;;;;;;5.15;3.22;;;21.60;32.80;;;;;;2330093;53;20980;-87
2022/04/21 10:43:03;;;;;;;5.72;3.28;;;21.70;32.90;;;;;;2597813;53;20972;-84
2022/04/21 10:45:33;;;;;;;5.20;3.33;;;21.80;32.60;;;;;;2595696;53;20932;-83
2022/04/21 10:48:14;;;;;;;4.87;2.87;;;21.90;32.70;;;;;;2598156;53;20908;-84
2022/04/21 10:50:43;;;;;;;5.53;3.47;;;22.00;32.30;;;;;;2352274;54;20896;-85
2022/04/21 10:58:50;;;;;;;7.25;3.55;;;22.00;32.10;;;;;;2352097;54;21703;-83
2022/04/21 11:01:19;;;;;;;6.25;2.87;;;22.10;32.00;;;;;;2574250;52;21038;-83
2022/04/21 11:03:46;;;;;;;4.80;2.85;;;22.10;32.30;;;;;;2583631;52;20936;-83
2022/04/21 11:06:13;;;;;;;5.72;3.12;;;22.20;32.40;;;;;;2586918;52;20927;-84
2022/04/21 11:08:40;;;;;;;4.40;3.25;;;22.30;32.40;;;;;;2597317;53;21007;-85
2022/04/21 11:11:06;;;;;;;6.53;3.58;;;22.40;32.10;;;;;;2352681;54;20927;-84
2022/04/21 11:13:41;;;;;;;6.28;3.60;;;22.50;32.50;;;;;;2597378;53;20927;-83
2022/04/21 11:16:08;;;;;;;4.80;3.08;;;22.40;31.30;;;;;;2596147;53;21563;-84
2022/04/21 11:18:34;;;;;;;4.80;3.20;;;22.40;31.60;;;;;;2597289;53;21374;-84
2022/04/21 11:21:23;;;;;;;8.90;5.70;;;22.40;31.80;;;;;;2597467;53;20984;-84
2022/04/21 11:24:10;;;;;;;5.75;4.05;;;22.50;31.80;;;;;;2597202;53;20956;-83
2022/04/21 11:26:37;;;;;;;7.22;4.05;;;22.50;32.00;;;;;;2355025;54;20939;-83
2022/04/21 11:29:04;;;;;;;5.95;3.80;;;22.50;31.70;;;;;;2597298;53;20951;-83
2022/04/21 11:31:32;;;;;;;4.25;2.95;;;22.60;32.10;;;;;;2351031;54;20970;-83
2022/04/21 11:34:02;;;;;;;5.40;3.40;;;22.70;32.20;;;;;;2573622;52;20927;-85
2022/04/21 11:36:36;;;;;;;5.45;3.17;;;22.70;32.00;;;;;;2334611;53;20975;-84
2022/04/21 11:39:06;;;;;;;4.50;2.95;;;22.80;32.00;;;;;;2596449;52;21610;-85
2022/04/21 11:41:32;;;;;;;5.05;2.72;;;22.80;31.80;;;;;;2597518;53;20912;-84
2022/04/21 11:43:58;;;;;;;5.03;3.00;;;22.90;31.70;;;;;;2340983;53;20977;-85
2022/04/21 11:46:25;;;;;;;4.97;2.78;;;23.00;31.60;;;;;;2587189;52;20908;-84
2022/04/21 11:49:00;;;;;;;4.53;2.97;;;23.00;31.60;;;;;;2597102;53;20940;-83
2022/04/21 11:51:27;;;;;;;5.05;3.08;;;23.10;31.20;;;;;;2595999;53;20995;-82
2022/04/21 11:53:55;;;;;;;5.75;2.62;;;23.10;31.10;;;;;;2351088;53;21329;-83
2022/04/21 11:56:22;;;;;;;3.60;2.42;;;23.20;31.40;;;;;;2353232;54;20952;-82
2022/04/21 11:58:48;;;;;;;5.07;2.37;;;23.20;31.50;;;;;;2598045;53;20951;-83
2022/04/21 12:06:54;;;;;;;5.25;2.87;;;23.60;31.90;;;;;;2350265;54;21011;-84
2022/04/21 12:09:22;;;;;;;5.03;2.97;;;23.70;31.70;;;;;;2352981;53;21718;-82
2022/04/21 12:11:53;;;;;;;4.37;2.90;;;23.80;31.20;;;;;;2351845;53;20939;-84
2022/04/21 12:14:19;;;;;;;3.92;2.33;;;23.90;31.00;;;;;;2330910;53;21087;-85
2022/04/21 12:17:07;;;;;;;3.78;2.33;;;23.90;31.00;;;;;;2353023;54;21450;-85
2022/04/21 12:19:46;;;;;;;4.85;2.90;;;24.00;31.00;;;;;;2347877;53;20936;-84
2022/04/21 12:22:19;;;;;;;4.40;2.62;;;24.10;31.00;;;;;;2597870;52;21577;-86
2022/04/21 12:24:54;;;;;;;4.97;2.60;;;24.20;30.80;;;;;;2569690;53;20912;-83
2022/04/21 12:27:34;;;;;;;5.93;2.50;;;24.20;30.60;;;;;;2352132;54;21015;-84
2022/04/21 12:30:06;;;;;;;4.45;2.87;;;24.20;30.40;;;;;;2342524;53;20943;-85
2022/04/21 12:32:34;;;;;;;4.40;2.72;;;24.30;30.40;;;;;;2593262;52;20920;-86
2022/04/21 12:35:06;;;;;;;5.25;2.72;;;24.30;30.30;;;;;;2332068;53;20963;-84
2022/04/21 12:37:33;;;;;;;;;;;24.30;30.10;;;;;;2357305;54;20944;-85
2022/04/21 12:40:00;;;;;;;6.15;3.00;;;24.30;30.30;;;;;;2573860;52;20871;-86
2022/04/21 12:42:47;;;;;;;5.87;2.80;;;24.30;29.90;;;;;;2352360;54;20932;-85
2022/04/21 12:45:14;;;;;;;4.57;2.35;;;24.20;29.80;;;;;;2333104;54;20955;-85
2022/04/21 12:47:50;;;;;;;4.90;3.05;;;24.20;29.70;;;;;;2583523;52;20897;-85
2022/04/21 12:50:18;;;;;;;4.75;2.90;;;24.10;29.50;;;;;;2569933;53;20996;-84
2022/04/21 12:52:49;;;;;;;4.47;2.80;;;24.10;29.60;;;;;;2584048;52;21986;-84
2022/04/21 12:55:33;;;;;;;6.05;2.25;;;24.10;29.60;;;;;;2593432;52;21749;-84
2022/04/21 12:58:07;;;;;;;3.95;2.97;;;24.00;29.80;;;;;;2587333;52;21451;-87
2022/04/21 13:00:45;;;;;;;4.35;2.50;;;24.00;29.70;;;;;;2577719;52;20963;-85
2022/04/21 13:03:14;;;;;;;4.25;2.58;;;24.00;29.70;;;;;;2585353;52;21633;-86
2022/04/21 13:05:50;;;;;;;4.80;2.70;;;24.00;30.00;;;;;;2342998;53;20983;-83
2022/04/21 13:08:18;;;;;;;4.87;3.00;;;24.00;29.80;;;;;;2564059;53;21128;-86
2022/04/21 13:10:44;;;;;;;4.78;3.10;;;24.00;29.80;;;;;;2595556;53;20936;-85
2022/04/21 13:13:11;;;;;;;3.67;2.40;;;24.00;29.80;;;;;;2595631;53;20956;-85
2022/04/21 13:15:37;;;;;;;4.35;2.60;;;24.00;29.90;;;;;;2598535;53;20967;-84
2022/04/21 13:18:04;;;;;;;4.00;2.35;;;24.00;30.00;;;;;;2572599;52;20971;-84
2022/04/21 13:23:16;;;;;;;4.12;2.35;;;24.10;30.00;;;;;;2577248;52;20983;-82
2022/04/21 13:25:42;;;;;;;4.37;2.87;;;24.20;30.00;;;;;;2347562;53;21075;-82
2022/04/21 13:28:10;;;;;;;5.25;2.80;;;24.20;29.80;;;;;;2598708;53;20936;-83
2022/04/21 13:30:36;;;;;;;4.12;2.40;;;24.20;29.70;;;;;;2599937;53;20936;-83
2022/04/21 13:33:21;;;;;;;4.93;2.90;;;24.20;29.60;;;;;;2598154;53;20940;-83
2022/04/21 13:35:51;;;;;;;3.87;2.30;;;24.20;29.60;;;;;;2570178;52;21055;-83
2022/04/21 13:38:18;;;;;;;4.20;2.42;;;24.30;29.70;;;;;;2598606;53;20964;-82
2022/04/21 13:40:44;;;;;;;4.57;2.37;;;24.20;29.60;;;;;;2352668;54;20912;-89
2022/04/21 13:43:10;;;;;;;4.07;2.45;;;24.20;29.70;;;;;;2593949;53;21596;-84
2022/04/21 13:46:07;;;;;;;4.00;2.47;;;24.20;29.60;;;;;;2337797;53;20995;-84
2022/04/21 13:48:33;;;;;;;4.85;2.83;;;24.20;29.70;;;;;;2597863;53;21004;-84
2022/04/21 13:50:59;;;;;;;5.28;2.10;;;24.20;29.70;;;;;;2597642;53;21289;-84
2022/04/21 13:53:26;;;;;;;6.97;2.40;;;24.20;29.70;;;;;;2596930;53;20931;-82
2022/04/21 13:55:52;;;;;;;4.05;2.20;;;24.20;29.80;;;;;;2352688;54;21751;-84
2022/04/21 13:58:18;;;;;;;3.28;2.15;;;24.20;29.70;;;;;;2596931;53;20952;-83